createdAt,value
2022-08-12T00:00:58.196Z,45.10
2022-08-12T00:02:03.023Z,40.09
2022-08-12T00:02:59.216Z,56.40
2022-08-12T00:03:58.144Z,45.40
2022-08-12T00:04:58.144Z,46.68
2022-08-12T00:06:04.512Z,42.92
2022-08-12T00:06:59.144Z,42.10
2022-08-12T00:07:58.120Z,47.68
2022-08-12T00:08:58.138Z,45.40
2022-08-12T00:09:58.112Z,46.79
2022-08-12T00:10:58.100Z,47.01
2022-08-12T00:11:58.140Z,47.06
2022-08-12T00:12:58.084Z,47.30
2022-08-12T00:13:58.075Z,41.34
2022-08-12T00:14:58.063Z,47.40
2022-08-12T00:15:58.056Z,32.95
2022-08-12T00:16:58.079Z,36.00
2022-08-12T00:17:58.041Z,41.39
2022-08-12T00:18:58.036Z,45.25
2022-08-12T00:19:58.028Z,45.47
2022-08-12T00:20:58.016Z,44.02
2022-08-12T00:21:58.045Z,36.75
2022-08-12T00:22:59.916Z,46.97
2022-08-12T00:23:57.999Z,36.59
2022-08-12T00:24:57.998Z,35.93
2022-08-12T00:26:21.041Z,39.60
2022-08-12T00:26:59.001Z,45.83
2022-08-12T00:27:57.956Z,38.82
2022-08-12T00:28:57.953Z,41.36
2022-08-12T00:29:57.936Z,32.39
2022-08-12T00:30:58.937Z,32.28
2022-08-12T00:31:57.962Z,38.43
2022-08-12T00:32:58.253Z,44.62
2022-08-12T00:33:57.914Z,41.76
2022-08-12T00:34:57.906Z,46.20
2022-08-12T00:35:57.896Z,43.95
2022-08-12T00:37:03.930Z,43.57
2022-08-12T00:37:59.885Z,42.38
2022-08-12T00:38:57.878Z,47.05
2022-08-12T00:39:57.945Z,45.87
2022-08-12T00:40:57.861Z,38.15
2022-08-12T00:41:57.886Z,46.62
2022-08-12T00:42:57.850Z,51.88
2022-08-12T00:43:57.838Z,37.84
2022-08-12T00:44:57.830Z,43.00
2022-08-12T00:45:57.817Z,49.44
2022-08-12T00:46:57.848Z,55.45
2022-08-12T00:47:57.804Z,51.52
2022-08-12T00:48:57.798Z,45.66
2022-08-12T00:49:57.789Z,40.36
2022-08-12T00:50:57.778Z,38.78
2022-08-12T00:51:57.817Z,45.52
2022-08-12T00:52:57.766Z,39.76
2022-08-12T00:53:57.761Z,33.01
2022-08-12T00:54:57.757Z,44.55
2022-08-12T00:55:57.748Z,50.77
2022-08-12T00:56:57.735Z,46.27
2022-08-12T00:57:57.757Z,55.47
2022-08-12T00:58:57.724Z,43.95
2022-08-12T00:59:57.718Z,40.54
2022-08-12T01:00:57.732Z,44.57
2022-08-12T01:02:01.114Z,42.42
2022-08-12T01:02:58.752Z,41.28
2022-08-12T01:03:57.685Z,43.27
2022-08-12T01:04:57.688Z,51.83
2022-08-12T01:05:57.673Z,57.85
2022-08-12T01:06:57.662Z,46.33
2022-08-12T01:07:57.685Z,46.81
2022-08-12T01:08:57.643Z,56.16
2022-08-12T01:09:57.637Z,43.90
2022-08-12T01:10:57.625Z,44.16
2022-08-12T01:11:57.626Z,51.92
2022-08-12T01:13:07.722Z,49.75
2022-08-12T01:13:58.607Z,49.79
2022-08-12T01:14:57.602Z,59.50
2022-08-12T01:15:57.597Z,47.16
2022-08-12T01:16:57.593Z,42.03
2022-08-12T01:17:57.609Z,33.91
2022-08-12T01:18:57.569Z,39.22
2022-08-12T01:19:57.569Z,40.07
2022-08-12T01:20:57.567Z,45.01
2022-08-12T01:21:57.557Z,52.61
2022-08-12T01:22:57.575Z,37.46
2022-08-12T01:23:57.542Z,38.08
2022-08-12T01:24:57.545Z,42.18
2022-08-12T01:25:57.532Z,44.06
2022-08-12T01:26:57.528Z,55.96
2022-08-12T01:27:57.537Z,43.37
2022-08-12T01:28:58.634Z,42.90
2022-08-12T01:29:57.492Z,49.81
2022-08-12T01:30:57.484Z,53.74
2022-08-12T01:31:57.488Z,44.57
2022-08-12T01:32:57.501Z,32.61
2022-08-12T01:33:57.461Z,35.14
2022-08-12T01:34:57.458Z,55.83
2022-08-12T01:36:30.250Z,51.16
2022-08-12T01:36:57.444Z,64.80
2022-08-12T01:37:57.468Z,49.70
2022-08-12T01:38:57.428Z,42.30
2022-08-12T01:40:34.259Z,54.82
2022-08-12T01:40:58.483Z,45.31
2022-08-12T01:41:57.409Z,43.92
2022-08-12T01:42:57.430Z,45.90
2022-08-12T01:43:57.386Z,40.84
2022-08-12T01:44:57.382Z,42.63
2022-08-12T01:45:57.761Z,42.51
2022-08-12T01:46:58.361Z,51.05
2022-08-12T01:47:57.360Z,41.14
2022-08-12T01:48:57.733Z,44.21
2022-08-12T01:49:57.332Z,43.75
2022-08-12T01:51:00.528Z,44.98
2022-08-12T01:52:20.995Z,36.88
2022-08-12T01:52:58.335Z,40.52
2022-08-12T01:53:57.745Z,50.94
2022-08-12T01:54:57.306Z,55.19
2022-08-12T01:55:57.297Z,39.58
2022-08-12T01:56:57.294Z,39.16
2022-08-12T01:58:01.200Z,34.61
2022-08-12T01:58:57.298Z,37.02
2022-08-12T01:59:57.263Z,41.58
2022-08-12T02:00:57.301Z,32.16
2022-08-12T02:01:57.343Z,33.57
2022-08-12T02:02:57.250Z,40.96
2022-08-12T02:03:57.261Z,49.24
2022-08-12T02:04:57.231Z,51.21
2022-08-12T02:05:57.222Z,47.86
2022-08-12T02:06:57.215Z,48.67
2022-08-12T02:07:57.208Z,43.35
2022-08-12T02:08:57.222Z,42.47
2022-08-12T02:09:57.193Z,45.00
2022-08-12T02:10:57.183Z,43.83
2022-08-12T02:11:57.177Z,45.07
2022-08-12T02:12:57.170Z,48.59
2022-08-12T02:13:57.187Z,43.76
2022-08-12T02:14:57.154Z,37.55
2022-08-12T02:15:57.143Z,43.93
2022-08-12T02:16:57.136Z,39.70
2022-08-12T02:17:57.166Z,46.52
2022-08-12T02:18:57.154Z,47.46
2022-08-12T02:19:57.112Z,49.69
2022-08-12T02:20:57.106Z,43.78
2022-08-12T02:21:57.098Z,47.51
2022-08-12T02:22:57.096Z,40.22
2022-08-12T02:23:57.110Z,39.00
2022-08-12T02:24:57.079Z,46.27
2022-08-12T02:25:57.072Z,43.85
2022-08-12T02:26:57.063Z,51.21
2022-08-12T02:27:57.060Z,46.39
2022-08-12T02:28:57.080Z,45.10
2022-08-12T02:29:57.036Z,45.39
2022-08-12T02:30:57.028Z,47.09
2022-08-12T02:31:57.022Z,46.25
2022-08-12T02:32:57.013Z,44.72
2022-08-12T02:33:57.030Z,45.45
2022-08-12T02:34:56.997Z,50.47
2022-08-12T02:35:56.986Z,47.62
2022-08-12T02:36:57.553Z,47.37
2022-08-12T02:37:57.968Z,47.43
2022-08-12T02:38:56.992Z,52.34
2022-08-12T02:39:57.005Z,54.23
2022-08-12T02:40:56.950Z,46.81
2022-08-12T02:41:56.946Z,48.84
2022-08-12T02:42:56.948Z,57.46
2022-08-12T02:43:56.963Z,48.31
2022-08-12T02:44:56.928Z,48.68
2022-08-12T02:45:56.921Z,49.86
2022-08-12T02:46:56.914Z,40.86
2022-08-12T02:47:59.418Z,49.05
2022-08-12T02:48:56.914Z,46.59
2022-08-12T02:49:56.881Z,50.57
2022-08-12T02:50:56.877Z,46.28
2022-08-12T02:51:56.872Z,50.01
2022-08-12T02:52:56.865Z,57.12
2022-08-12T02:54:04.994Z,53.64
2022-08-12T02:54:57.845Z,46.34
2022-08-12T02:55:56.842Z,52.78
2022-08-12T02:56:56.831Z,46.83
2022-08-12T02:57:56.824Z,48.60
2022-08-12T02:58:56.841Z,51.24
2022-08-12T02:59:56.813Z,49.40
2022-08-12T03:00:56.990Z,44.88
2022-08-12T03:01:56.793Z,50.17
2022-08-12T03:02:56.788Z,47.57
2022-08-12T03:03:56.803Z,44.60
2022-08-12T03:04:56.775Z,48.24
2022-08-12T03:05:56.764Z,45.85
2022-08-12T03:06:56.758Z,48.33
2022-08-12T03:07:59.225Z,45.54
2022-08-12T03:08:56.772Z,45.27
2022-08-12T03:10:04.339Z,45.94
2022-08-12T03:10:57.723Z,47.21
2022-08-12T03:11:56.715Z,52.20
2022-08-12T03:12:56.712Z,54.75
2022-08-12T03:13:56.731Z,50.40
2022-08-12T03:14:56.722Z,48.90
2022-08-12T03:15:56.699Z,44.46
2022-08-12T03:16:56.683Z,51.97
2022-08-12T03:18:26.228Z,52.60
2022-08-12T03:18:57.692Z,55.90
2022-08-12T03:20:09.510Z,51.38
2022-08-12T03:20:57.650Z,52.60
2022-08-12T03:22:09.612Z,52.71
2022-08-12T03:22:57.638Z,52.19
2022-08-12T03:23:56.657Z,52.08
2022-08-12T03:24:56.620Z,55.65
2022-08-12T03:25:56.616Z,52.02
2022-08-12T03:27:00.327Z,49.86
2022-08-12T03:27:56.610Z,53.54
2022-08-12T03:28:56.620Z,52.93
2022-08-12T03:29:56.593Z,53.61
2022-08-12T03:30:56.937Z,55.71
2022-08-12T03:31:57.570Z,55.33
2022-08-12T03:32:56.565Z,51.23
2022-08-12T03:34:00.530Z,55.75
2022-08-12T03:34:57.546Z,54.95
2022-08-12T03:35:56.543Z,53.72
2022-08-12T03:36:56.534Z,50.12
2022-08-12T03:37:56.526Z,55.81
2022-08-12T03:38:56.547Z,52.59
2022-08-12T03:39:56.562Z,55.75
2022-08-12T03:40:56.498Z,53.92
2022-08-12T03:41:58.210Z,54.56
2022-08-12T03:42:56.491Z,57.36
2022-08-12T03:43:56.515Z,56.95
2022-08-12T03:44:56.477Z,57.34
2022-08-12T03:45:56.839Z,52.99
2022-08-12T03:46:56.460Z,53.77
2022-08-12T03:47:56.451Z,54.93
2022-08-12T03:48:56.441Z,48.23
2022-08-12T03:49:56.465Z,52.85
2022-08-12T03:50:56.426Z,52.25
2022-08-12T03:51:56.419Z,58.43
2022-08-12T03:52:56.416Z,57.25
2022-08-12T03:53:56.410Z,57.28
2022-08-12T03:54:56.414Z,58.03
2022-08-12T03:55:56.385Z,56.05
2022-08-12T03:56:56.375Z,51.79
2022-08-12T03:57:56.368Z,51.64
2022-08-12T03:58:56.366Z,48.40
2022-08-12T03:59:56.383Z,49.47
2022-08-12T04:00:56.450Z,50.44
2022-08-12T04:01:56.344Z,51.19
2022-08-12T04:02:56.333Z,52.87
2022-08-12T04:03:56.338Z,52.61
2022-08-12T04:04:56.358Z,53.84
2022-08-12T04:05:56.878Z,54.26
2022-08-12T04:06:57.301Z,52.03
2022-08-12T04:07:58.272Z,52.57
2022-08-12T04:08:56.289Z,52.76
2022-08-12T04:09:56.299Z,49.54
2022-08-12T04:10:56.271Z,51.14
2022-08-12T04:11:56.258Z,54.79
2022-08-12T04:12:56.253Z,53.79
2022-08-12T04:13:56.246Z,52.82
2022-08-12T04:14:56.268Z,53.43
2022-08-12T04:15:56.227Z,54.04
2022-08-12T04:16:56.224Z,54.26
2022-08-12T04:18:07.603Z,56.63
2022-08-12T04:18:57.206Z,55.54
2022-08-12T04:19:56.292Z,54.83
2022-08-12T04:20:56.194Z,57.65
2022-08-12T04:22:02.194Z,54.84
2022-08-12T04:22:57.178Z,55.58
2022-08-12T04:23:56.174Z,55.87
2022-08-12T04:24:56.199Z,56.46
2022-08-12T04:25:56.154Z,51.85
2022-08-12T04:26:56.147Z,56.80
2022-08-12T04:27:56.140Z,54.91
2022-08-12T04:28:56.133Z,54.67
2022-08-12T04:30:16.396Z,54.96
2022-08-12T04:30:57.115Z,53.85
2022-08-12T04:31:56.113Z,54.37
2022-08-12T04:32:56.100Z,53.15
2022-08-12T04:33:56.093Z,55.02
2022-08-12T04:34:56.113Z,51.80
2022-08-12T04:35:56.079Z,54.98
2022-08-12T04:36:56.076Z,51.61
2022-08-12T04:37:58.162Z,55.73
2022-08-12T04:38:59.571Z,56.63
2022-08-12T04:39:57.107Z,56.11
2022-08-12T04:40:56.048Z,57.90
2022-08-12T04:41:58.698Z,55.33
2022-08-12T04:42:56.028Z,56.44
2022-08-12T04:44:02.173Z,51.79
2022-08-12T04:44:57.036Z,56.36
2022-08-12T04:45:55.998Z,56.74
2022-08-12T04:46:56.016Z,54.47
2022-08-12T04:47:55.989Z,57.06
2022-08-12T04:48:55.974Z,57.52
2022-08-12T04:49:56.002Z,54.02
2022-08-12T04:50:55.959Z,54.98
2022-08-12T04:51:59.160Z,56.43
2022-08-12T04:52:55.942Z,56.77
2022-08-12T04:53:55.934Z,55.90
2022-08-12T04:54:55.955Z,58.97
2022-08-12T04:55:55.923Z,54.25
2022-08-12T04:57:03.083Z,56.47
2022-08-12T04:57:56.909Z,53.86
2022-08-12T04:58:55.900Z,55.45
2022-08-12T04:59:55.910Z,54.08
2022-08-12T05:00:55.888Z,52.02
2022-08-12T05:01:55.900Z,53.96
2022-08-12T05:02:55.942Z,56.38
2022-08-12T05:03:55.853Z,53.28
2022-08-12T05:04:55.876Z,50.85
2022-08-12T05:05:55.846Z,53.95
2022-08-12T05:06:55.835Z,53.39
2022-08-12T05:07:55.829Z,55.26
2022-08-12T05:08:55.839Z,57.28
2022-08-12T05:10:00.007Z,55.59
2022-08-12T05:10:56.802Z,53.41
2022-08-12T05:11:55.807Z,55.75
2022-08-12T05:12:55.794Z,56.78
2022-08-12T05:13:55.783Z,53.24
2022-08-12T05:14:55.808Z,54.21
2022-08-12T05:16:05.536Z,59.02
2022-08-12T05:16:56.767Z,55.42
2022-08-12T05:17:55.983Z,57.08
2022-08-12T05:18:55.748Z,52.57
2022-08-12T05:19:57.401Z,54.11
2022-08-12T05:20:55.727Z,52.68
2022-08-12T05:21:55.722Z,61.05
2022-08-12T05:22:57.131Z,54.10
2022-08-12T05:23:55.708Z,55.42
2022-08-12T05:24:55.735Z,55.85
2022-08-12T05:25:55.702Z,56.53
2022-08-12T05:26:55.689Z,54.08
2022-08-12T05:27:59.011Z,54.38
2022-08-12T05:28:55.675Z,52.21
2022-08-12T05:30:06.893Z,51.59
2022-08-12T05:30:56.662Z,53.78
2022-08-12T05:31:55.653Z,52.56
2022-08-12T05:32:55.790Z,52.31
2022-08-12T05:33:55.641Z,53.77
2022-08-12T05:34:55.659Z,56.95
2022-08-12T05:35:55.620Z,54.32
2022-08-12T05:36:55.615Z,53.20
2022-08-12T05:37:55.601Z,58.10
2022-08-12T05:38:55.606Z,52.88
2022-08-12T05:39:55.681Z,56.61
2022-08-12T05:40:55.585Z,57.19
2022-08-12T05:41:55.576Z,54.32
2022-08-12T05:42:55.565Z,55.73
2022-08-12T05:43:55.561Z,56.32
2022-08-12T05:44:55.581Z,53.96
2022-08-12T05:45:55.550Z,49.33
2022-08-12T05:46:55.535Z,56.14
2022-08-12T05:47:55.528Z,58.33
2022-08-12T05:48:55.532Z,53.81
2022-08-12T05:49:55.541Z,55.29
2022-08-12T05:50:55.504Z,54.97
2022-08-12T05:51:55.493Z,50.76
2022-08-12T05:52:55.489Z,52.48
2022-08-12T05:53:55.485Z,56.45
2022-08-12T05:54:57.853Z,52.99
2022-08-12T05:55:56.468Z,54.16
2022-08-12T05:56:55.460Z,55.70
2022-08-12T05:57:55.454Z,53.22
2022-08-12T05:58:55.450Z,51.93
2022-08-12T05:59:55.461Z,54.62
2022-08-12T06:00:55.430Z,49.50
2022-08-12T06:02:09.790Z,55.24
2022-08-12T06:02:56.484Z,48.41
2022-08-12T06:03:55.405Z,53.46
2022-08-12T06:04:55.453Z,53.93
2022-08-12T06:05:55.896Z,52.87
2022-08-12T06:06:56.383Z,55.74
2022-08-12T06:08:01.932Z,53.80
2022-08-12T06:08:56.368Z,58.06
2022-08-12T06:09:55.363Z,50.38
2022-08-12T06:10:55.381Z,52.41
2022-08-12T06:12:05.727Z,52.64
2022-08-12T06:12:56.340Z,55.34
2022-08-12T06:13:55.333Z,53.19
2022-08-12T06:14:55.323Z,58.37
2022-08-12T06:15:55.347Z,56.28
2022-08-12T06:16:55.311Z,54.60
2022-08-12T06:17:55.305Z,55.60
2022-08-12T06:18:55.293Z,54.54
2022-08-12T06:20:27.734Z,52.31
2022-08-12T06:20:56.300Z,52.68
2022-08-12T06:21:55.269Z,52.55
2022-08-12T06:22:55.314Z,53.75
2022-08-12T06:23:55.257Z,53.35
2022-08-12T06:24:55.246Z,53.98
2022-08-12T06:25:55.271Z,48.65
2022-08-12T06:26:55.237Z,52.41
2022-08-12T06:28:07.356Z,57.22
2022-08-12T06:28:56.220Z,54.75
2022-08-12T06:30:10.072Z,53.42
2022-08-12T06:31:24.845Z,50.23
2022-08-12T06:31:57.202Z,54.98
2022-08-12T06:33:11.488Z,51.41
2022-08-12T06:34:59.365Z,49.57
2022-08-12T06:35:26.489Z,53.98
2022-08-12T06:35:57.604Z,53.01
2022-08-12T06:36:55.158Z,52.62
2022-08-12T06:37:56.847Z,53.64
2022-08-12T06:38:55.145Z,53.95
2022-08-12T06:39:56.480Z,51.32
2022-08-12T06:40:55.157Z,54.27
2022-08-12T06:42:30.590Z,51.25
2022-08-12T06:42:56.117Z,53.72
2022-08-12T06:44:06.248Z,55.49
2022-08-12T06:44:56.100Z,55.88
2022-08-12T06:45:55.119Z,55.09
2022-08-12T06:46:55.086Z,54.79
2022-08-12T06:47:55.080Z,54.33
2022-08-12T06:48:55.074Z,55.75
2022-08-12T06:49:55.066Z,59.08
2022-08-12T06:50:55.079Z,55.65
2022-08-12T06:51:56.932Z,54.35
2022-08-12T06:52:55.039Z,53.93
2022-08-12T06:53:55.031Z,52.88
2022-08-12T06:54:55.039Z,57.74
2022-08-12T06:55:57.721Z,58.30
2022-08-12T06:58:01.804Z,57.11
2022-08-12T06:58:07.049Z,53.95
2022-08-12T06:58:55.991Z,53.65
2022-08-12T06:59:54.988Z,54.79
2022-08-12T07:00:55.049Z,55.97
2022-08-12T07:01:54.971Z,56.16
2022-08-12T07:02:54.964Z,52.57
2022-08-12T07:03:54.960Z,55.63
2022-08-12T07:04:54.946Z,58.48
2022-08-12T07:05:54.966Z,50.28
2022-08-12T07:06:54.941Z,52.50
2022-08-12T07:07:54.927Z,49.58
2022-08-12T07:08:54.922Z,49.56
2022-08-12T07:10:06.034Z,51.43
2022-08-12T07:10:55.927Z,52.71
2022-08-12T07:11:54.892Z,55.76
2022-08-12T07:12:54.905Z,54.02
2022-08-12T07:14:12.815Z,55.93
2022-08-12T07:14:55.868Z,52.50
2022-08-12T07:15:54.894Z,53.46
2022-08-12T07:16:54.861Z,52.90
2022-08-12T07:17:54.848Z,53.23
2022-08-12T07:18:54.849Z,57.18
2022-08-12T07:19:58.055Z,60.42
2022-08-12T07:20:55.860Z,54.40
2022-08-12T07:22:02.299Z,55.61
2022-08-12T07:22:55.816Z,52.26
2022-08-12T07:23:54.804Z,56.07
2022-08-12T07:24:54.800Z,53.98
2022-08-12T07:25:58.314Z,54.60
2022-08-12T07:26:55.803Z,46.65
2022-08-12T07:27:54.767Z,56.05
2022-08-12T07:28:54.768Z,59.04
2022-08-12T07:29:58.321Z,55.38
2022-08-12T07:30:55.751Z,54.86
2022-08-12T07:31:54.785Z,53.78
2022-08-12T07:32:58.529Z,53.02
2022-08-12T07:33:55.727Z,49.10
2022-08-12T07:34:54.764Z,55.16
2022-08-12T07:36:26.650Z,50.61
2022-08-12T07:36:54.705Z,51.81
2022-08-12T07:37:54.700Z,52.93
2022-08-12T07:38:54.688Z,53.96
2022-08-12T07:39:59.978Z,52.13
2022-08-12T07:40:55.679Z,53.23
2022-08-12T07:41:54.694Z,51.04
2022-08-12T07:42:54.662Z,55.61
2022-08-12T07:43:54.654Z,52.99
2022-08-12T07:44:54.636Z,49.32
2022-08-12T07:45:55.652Z,56.90
2022-08-12T07:46:54.668Z,52.71
2022-08-12T07:47:54.625Z,50.67
2022-08-12T07:48:54.624Z,53.79
2022-08-12T07:50:04.220Z,51.17
2022-08-12T07:50:55.598Z,54.97
2022-08-12T07:51:54.617Z,51.68
2022-08-12T07:52:54.585Z,54.81
2022-08-12T07:54:00.670Z,52.81
2022-08-12T07:54:55.572Z,53.87
2022-08-12T07:55:54.566Z,52.69
2022-08-12T07:56:54.598Z,54.38
2022-08-12T07:57:54.555Z,51.00
2022-08-12T07:58:54.542Z,54.92
2022-08-12T07:59:55.537Z,55.98
2022-08-12T08:00:54.531Z,52.96
2022-08-12T08:01:54.660Z,59.86
2022-08-12T08:02:54.533Z,59.93
2022-08-12T08:03:54.508Z,56.26
2022-08-12T08:04:54.519Z,52.69
2022-08-12T08:05:54.490Z,55.66
2022-08-12T08:06:54.512Z,54.16
2022-08-12T08:07:54.477Z,53.27
2022-08-12T08:08:54.469Z,54.70
2022-08-12T08:09:58.569Z,54.83
2022-08-12T08:10:54.456Z,54.21
2022-08-12T08:11:54.478Z,56.72
2022-08-12T08:12:54.443Z,50.23
2022-08-12T08:13:54.444Z,54.00
2022-08-12T08:14:54.434Z,58.04
2022-08-12T08:16:03.483Z,54.53
2022-08-12T08:16:56.467Z,54.41
2022-08-12T08:17:54.404Z,52.90
2022-08-12T08:18:54.401Z,55.82
2022-08-12T08:20:03.698Z,55.22
2022-08-12T08:20:55.380Z,60.61
2022-08-12T08:21:54.409Z,55.46
2022-08-12T08:22:54.381Z,56.26
2022-08-12T08:23:57.495Z,53.70
2022-08-12T08:24:55.358Z,56.35
2022-08-12T08:25:54.343Z,54.43
2022-08-12T08:26:54.357Z,52.99
2022-08-12T08:27:54.330Z,53.07
2022-08-12T08:28:54.322Z,54.77
2022-08-12T08:29:54.328Z,59.10
2022-08-12T08:30:54.319Z,52.41
2022-08-12T08:31:54.334Z,56.69
2022-08-12T08:32:54.293Z,53.06
2022-08-12T08:34:05.127Z,55.65
2022-08-12T08:34:55.325Z,52.39
2022-08-12T08:35:54.890Z,54.25
2022-08-12T08:36:54.261Z,54.43
2022-08-12T08:37:54.286Z,56.56
2022-08-12T08:38:57.897Z,55.40
2022-08-12T08:39:54.308Z,54.07
2022-08-12T08:40:54.233Z,56.95
2022-08-12T08:42:17.785Z,58.45
2022-08-12T08:42:55.238Z,54.68
2022-08-12T08:43:54.205Z,52.00
2022-08-12T08:44:58.434Z,55.52
2022-08-12T08:45:54.189Z,53.85
2022-08-12T08:46:54.189Z,55.87
2022-08-12T08:47:57.215Z,54.41
2022-08-12T08:48:59.358Z,55.02
2022-08-12T08:49:55.172Z,53.94
2022-08-12T08:51:04.446Z,56.71
2022-08-12T08:51:55.146Z,53.68
2022-08-12T08:52:54.174Z,53.08
2022-08-12T08:53:54.131Z,53.70
2022-08-12T08:54:54.124Z,53.09
2022-08-12T08:56:04.740Z,58.58
2022-08-12T08:56:56.107Z,54.35
2022-08-12T08:57:54.125Z,54.31
2022-08-12T08:58:54.095Z,55.11
2022-08-12T08:59:54.089Z,53.69
2022-08-12T09:00:54.081Z,52.11
2022-08-12T09:01:54.173Z,54.94
2022-08-12T09:02:59.181Z,57.11
2022-08-12T09:05:09.769Z,59.58
2022-08-12T09:05:13.153Z,57.13
2022-08-12T09:06:02.117Z,54.79
2022-08-12T09:06:55.893Z,55.40
2022-08-12T09:08:09.166Z,61.21
2022-08-12T09:08:55.011Z,60.71
2022-08-12T09:10:59.857Z,57.84
2022-08-12T09:12:11.365Z,60.38
2022-08-12T09:12:55.802Z,55.46
2022-08-12T09:14:11.123Z,53.82
2022-08-12T09:14:54.974Z,57.14
2022-08-12T09:16:54.954Z,58.23
2022-08-12T09:17:54.118Z,60.39
2022-08-12T09:18:54.010Z,56.95
2022-08-12T09:19:58.125Z,53.52
2022-08-12T09:20:54.929Z,55.16
2022-08-12T09:21:54.698Z,55.60
2022-08-12T09:22:54.329Z,57.53
2022-08-12T09:23:59.028Z,58.14
2022-08-12T09:24:54.899Z,57.30
2022-08-12T09:25:53.897Z,57.54
2022-08-12T09:26:53.885Z,55.22
2022-08-12T09:28:54.896Z,55.04
2022-08-12T09:30:11.011Z,54.78
2022-08-12T09:30:57.296Z,53.41
2022-08-12T09:32:08.196Z,60.13
2022-08-12T09:33:04.469Z,56.83
2022-08-12T09:34:25.702Z,55.64
2022-08-12T09:34:54.836Z,56.96
2022-08-12T09:36:03.043Z,62.52
2022-08-12T09:36:59.985Z,60.38
2022-08-12T09:37:59.289Z,57.30
2022-08-12T09:38:59.164Z,57.02
2022-08-12T09:40:03.475Z,54.72
2022-08-12T09:41:01.433Z,55.23
2022-08-12T09:42:32.791Z,57.22
2022-08-12T09:43:18.910Z,61.27
2022-08-12T09:44:01.077Z,61.47
2022-08-12T09:45:03.628Z,56.74
2022-08-12T09:46:11.677Z,56.54
2022-08-12T09:46:54.828Z,55.93
2022-08-12T09:47:59.298Z,64.17
2022-08-12T09:48:56.223Z,56.48
2022-08-12T09:49:58.626Z,56.38
2022-08-12T09:50:55.079Z,58.07
2022-08-12T09:51:53.727Z,56.96
2022-08-12T09:52:56.425Z,61.45
2022-08-12T09:54:08.413Z,59.81
2022-08-12T09:54:59.731Z,57.32
2022-08-12T09:56:05.284Z,64.41
2022-08-12T09:57:02.904Z,55.70
2022-08-12T09:58:44.655Z,62.42
2022-08-12T09:59:00.495Z,56.99
2022-08-12T10:00:12.874Z,54.20
2022-08-12T10:00:54.678Z,56.70
2022-08-12T10:02:45.431Z,58.89
2022-08-12T10:02:55.157Z,54.99
2022-08-12T10:04:04.186Z,58.59
2022-08-12T10:04:54.657Z,63.47
2022-08-12T10:06:19.628Z,58.51
2022-08-12T10:06:57.574Z,57.60
2022-08-12T10:07:53.605Z,56.64
2022-08-12T10:08:53.644Z,54.99
2022-08-12T10:09:57.320Z,53.39
2022-08-12T10:10:54.562Z,57.58
2022-08-12T10:12:12.314Z,57.84
2022-08-12T10:12:54.547Z,56.53
2022-08-12T10:13:54.568Z,63.51
2022-08-12T10:14:54.794Z,58.34
2022-08-12T10:16:01.797Z,56.11
2022-08-12T10:16:54.518Z,56.66
2022-08-12T10:18:05.766Z,58.11
2022-08-12T10:18:54.551Z,56.79
2022-08-12T10:19:53.496Z,55.86
2022-08-12T10:20:53.558Z,55.84
2022-08-12T10:21:56.795Z,55.03
2022-08-12T10:22:53.657Z,59.83
2022-08-12T10:23:56.681Z,57.46
2022-08-12T10:24:53.610Z,56.47
2022-08-12T10:26:37.662Z,56.59
2022-08-12T10:26:54.446Z,54.88
2022-08-12T10:28:05.406Z,60.50
2022-08-12T10:29:02.927Z,56.95
2022-08-12T10:30:37.385Z,54.62
2022-08-12T10:30:59.251Z,57.88
2022-08-12T10:32:21.075Z,54.26
2022-08-12T10:32:56.416Z,56.44
2022-08-12T10:34:04.970Z,59.48
2022-08-12T10:34:57.189Z,55.18
2022-08-12T10:35:53.397Z,55.36
2022-08-12T10:36:53.377Z,56.36
2022-08-12T10:38:34.015Z,55.20
2022-08-12T10:38:56.501Z,63.40
2022-08-12T10:40:08.251Z,56.92
2022-08-12T10:40:56.550Z,57.19
2022-08-12T10:41:56.423Z,57.86
2022-08-12T10:43:00.637Z,56.42
2022-08-12T10:43:57.014Z,55.30
2022-08-12T10:44:56.476Z,58.76
2022-08-12T10:46:02.375Z,59.38
2022-08-12T10:47:01.374Z,55.26
2022-08-12T10:48:07.844Z,57.89
2022-08-12T10:49:05.259Z,55.88
2022-08-12T10:50:06.919Z,56.49
2022-08-12T10:51:02.246Z,56.04
2022-08-12T10:52:32.474Z,54.91
2022-08-12T10:52:54.565Z,55.09
2022-08-12T10:53:53.274Z,57.46
2022-08-12T10:54:53.250Z,55.26
2022-08-12T10:55:56.128Z,57.96
2022-08-12T10:56:54.225Z,54.69
2022-08-12T10:58:14.539Z,60.57
2022-08-12T10:58:54.250Z,61.13
2022-08-12T11:00:31.020Z,58.59
2022-08-12T11:00:55.514Z,55.42
2022-08-12T11:04:25.352Z,55.28
2022-08-12T11:04:28.132Z,54.80
2022-08-12T11:04:32.099Z,59.05
2022-08-12T11:04:54.799Z,54.04
2022-08-12T11:07:09.094Z,53.53
2022-08-12T11:07:09.658Z,54.85
2022-08-12T11:08:38.513Z,55.08
2022-08-12T11:08:57.000Z,58.51
2022-08-12T11:10:01.272Z,63.21
2022-08-12T11:11:09.204Z,58.24
2022-08-12T11:12:34.605Z,58.71
2022-08-12T11:13:09.181Z,58.44
2022-08-12T11:14:00.801Z,58.86
2022-08-12T11:14:58.983Z,59.35
2022-08-12T11:16:25.495Z,60.54
2022-08-12T11:17:34.495Z,53.88
2022-08-12T11:17:55.993Z,55.01
2022-08-12T11:18:55.013Z,55.82
2022-08-12T11:19:53.056Z,54.89
2022-08-12T11:20:53.058Z,54.67
2022-08-12T11:21:58.069Z,57.94
2022-08-12T11:22:58.820Z,60.74
2022-08-12T11:23:54.119Z,54.14
2022-08-12T11:24:55.277Z,58.38
2022-08-12T11:25:58.222Z,57.13
2022-08-12T11:26:54.063Z,53.01
2022-08-12T11:27:53.007Z,57.34
2022-08-12T11:29:05.394Z,50.98
2022-08-12T11:30:06.250Z,53.61
2022-08-12T11:30:53.975Z,50.41
2022-08-12T11:31:56.296Z,56.64
2022-08-12T11:32:54.644Z,55.53
2022-08-12T11:34:04.406Z,58.95
2022-08-12T11:34:55.366Z,57.62
2022-08-12T11:35:59.203Z,58.30
2022-08-12T11:36:54.896Z,56.97
2022-08-12T11:37:58.241Z,57.31
2022-08-12T11:38:53.895Z,58.54
2022-08-12T11:40:53.880Z,55.82
2022-08-12T11:41:53.257Z,58.58
2022-08-12T11:42:53.057Z,60.30
2022-08-12T11:43:58.962Z,57.06
2022-08-12T11:44:53.872Z,60.35
2022-08-12T11:45:56.507Z,58.20
2022-08-12T11:46:53.482Z,57.16
2022-08-12T11:47:55.564Z,56.32
2022-08-12T11:48:52.964Z,58.74
2022-08-12T11:49:52.883Z,58.16
2022-08-12T11:50:52.859Z,58.63
2022-08-12T11:51:57.627Z,57.83
2022-08-12T11:52:55.245Z,58.72
2022-08-12T11:53:59.019Z,62.43
2022-08-12T11:54:54.303Z,58.51
2022-08-12T11:55:52.764Z,54.48
2022-08-12T11:56:59.646Z,55.36
2022-08-12T11:58:08.682Z,56.61
2022-08-12T12:01:58.910Z,60.82
2022-08-12T12:02:02.459Z,54.51
2022-08-12T12:02:53.738Z,60.36
2022-08-12T12:03:54.766Z,55.84
2022-08-12T12:04:53.856Z,57.89
2022-08-12T12:05:52.689Z,63.01
2022-08-12T12:06:53.075Z,59.13
2022-08-12T12:08:38.546Z,57.95
2022-08-12T12:08:54.156Z,58.09
2022-08-12T12:09:53.917Z,59.68
2022-08-12T12:10:53.671Z,55.88
2022-08-12T12:11:52.676Z,55.87
2022-08-12T12:12:52.647Z,55.90
2022-08-12T12:14:07.394Z,57.23
2022-08-12T12:14:54.490Z,53.99
2022-08-12T12:15:53.139Z,53.65
2022-08-12T12:16:52.611Z,55.02
2022-08-12T12:17:55.001Z,60.27
2022-08-12T12:18:52.601Z,58.91
2022-08-12T12:19:52.621Z,61.55
2022-08-12T12:20:52.596Z,57.63
2022-08-12T12:21:52.588Z,61.18
2022-08-12T12:22:52.572Z,57.30
2022-08-12T12:23:52.586Z,56.88
2022-08-12T12:24:53.972Z,62.72
2022-08-12T12:26:06.189Z,58.62
2022-08-12T12:27:00.195Z,57.08
2022-08-12T12:28:04.871Z,59.13
2022-08-12T12:28:54.449Z,65.93
2022-08-12T12:30:17.771Z,63.23
2022-08-12T12:30:54.778Z,59.96
2022-08-12T12:32:10.987Z,58.03
2022-08-12T12:32:54.498Z,57.29
2022-08-12T12:33:57.820Z,57.52
2022-08-12T12:35:14.212Z,55.38
2022-08-12T12:36:20.012Z,53.06
2022-08-12T12:36:54.794Z,58.25
2022-08-12T12:38:05.479Z,57.90
2022-08-12T12:38:53.448Z,57.97
2022-08-12T12:39:55.111Z,57.08
2022-08-12T12:40:52.437Z,57.76
2022-08-12T12:42:43.066Z,56.14
2022-08-12T12:42:55.911Z,58.65
2022-08-12T12:44:03.824Z,58.34
2022-08-12T12:44:53.816Z,56.19
2022-08-12T12:45:52.397Z,55.94
2022-08-12T12:46:52.395Z,58.61
2022-08-12T12:47:52.385Z,56.47
2022-08-12T12:48:52.382Z,57.35
2022-08-12T12:49:53.579Z,59.84
2022-08-12T12:50:52.365Z,58.82
2022-08-12T12:52:19.010Z,59.04
2022-08-12T12:52:53.349Z,59.25
2022-08-12T12:54:08.095Z,56.80
2022-08-12T12:54:53.375Z,55.45
2022-08-12T12:55:52.344Z,57.64
2022-08-12T12:56:52.317Z,57.03
2022-08-12T12:58:00.119Z,53.62
2022-08-12T12:58:53.315Z,57.76